Time;durP1;ratioP1;P1;durP2;ratioP2;P2;SDS_P1;SDS_P2;PMS_P1;PMS_P2;Temp;Humidity;BMP_temperature;BMP_pressure;BME280_temperature;BME280_humidity;BME280_pressure;Samples;Min_cycle;Max_cycle;Signal;HPM_P1;HPM_P2
2021/05/09 00:01:00;;;;;;;2.00;1.80;;;17.80;84.30;;;17.83;41.56;100430.56;4876403;28;102230;-51
2021/05/09 00:03:26;;;;;;;2.07;1.80;;;17.80;81.00;;;17.81;40.99;100438.66;4890960;28;97499;-50
2021/05/09 00:05:53;;;;;;;2.07;1.93;;;17.80;79.70;;;17.80;42.35;100428.09;4889213;28;97521;-44
2021/05/09 00:08:19;;;;;;;2.03;1.83;;;17.70;82.80;;;17.80;41.29;100428.09;4895981;28;98413;-49
2021/05/09 00:10:45;;;;;;;1.73;1.63;;;17.70;80.30;;;17.84;40.45;100424.25;4880425;28;99991;-51
2021/05/09 00:13:11;;;;;;;2.00;1.80;;;17.80;78.80;;;17.84;41.60;100426.91;4862073;28;98156;-51
2021/05/09 00:15:37;;;;;;;1.70;1.60;;;17.80;80.50;;;17.88;40.37;100416.88;4870503;28;98869;-54
2021/05/09 00:18:04;;;;;;;1.97;1.60;;;17.90;77.60;;;17.92;41.19;100421.03;4876806;28;97057;-54
2021/05/09 00:20:31;;;;;;;1.73;1.63;;;17.90;80.10;;;17.93;40.32;100422.75;4877636;28;98914;-57
2021/05/09 00:22:57;;;;;;;1.87;1.73;;;17.90;78.60;;;17.93;40.15;100410.25;4873370;28;100378;-45
2021/05/09 00:25:23;;;;;;;2.03;1.70;;;17.90;78.90;;;17.94;40.18;100409.31;4874398;28;98693;-54
2021/05/09 00:27:49;;;;;;;2.13;1.77;;;17.90;77.60;;;17.98;40.23;100405.47;4873870;28;102426;-56
2021/05/09 00:30:16;;;;;;;2.00;1.80;;;18.00;77.30;;;18.00;41.49;100402.69;4873276;28;100329;-53
2021/05/09 00:32:43;;;;;;;2.00;1.77;;;18.00;79.90;;;18.01;40.02;100402.56;4874277;28;100115;-55
2021/05/09 00:35:10;;;;;;;2.03;1.93;;;18.00;77.10;;;18.01;40.17;100405.25;4858410;28;98636;-53
2021/05/09 00:37:36;;;;;;;2.30;2.10;;;18.00;77.50;;;17.97;40.98;100397.56;4892000;28;99572;-51
2021/05/09 00:40:04;;;;;;;2.10;1.73;;;18.00;81.80;;;17.94;41.14;100403.09;4879131;28;99005;-50
2021/05/09 00:42:30;;;;;;;2.00;1.80;;;17.90;82.10;;;17.95;40.63;100395.00;4893931;28;98138;-52
2021/05/09 00:44:56;;;;;;;2.07;1.93;;;17.90;79.80;;;17.92;41.08;100400.53;4899336;28;107781;-45
2021/05/09 00:47:22;;;;;;;2.30;1.90;;;17.90;82.10;;;17.86;41.06;100395.66;4872836;28;97578;-55
2021/05/09 00:49:48;;;;;;;2.30;2.10;;;17.80;85.10;;;17.80;40.86;100385.41;4872857;28;99560;-46
2021/05/09 00:52:14;;;;;;;1.80;1.70;;;17.70;82.20;;;17.79;40.96;100394.34;4875320;28;99830;-48
2021/05/09 00:54:56;;;;;;;2.90;2.13;;;17.70;80.70;;;17.72;41.45;100393.09;4860445;28;97277;-50
2021/05/09 00:57:23;;;;;;;2.23;1.80;;;17.50;84.80;;;17.66;40.96;100390.81;4857140;28;98952;-48
2021/05/09 00:59:52;;;;;;;1.67;1.57;;;17.40;82.00;;;17.69;40.87;100390.63;4876890;28;98866;-49
2021/05/09 01:02:19;;;;;;;2.13;1.80;;;17.50;79.10;;;17.75;40.42;100382.19;4874703;28;100822;-51
2021/05/09 01:04:46;;;;;;;1.90;1.80;;;17.60;78.40;;;17.79;40.63;100384.56;4869088;28;97421;-51
2021/05/09 01:07:15;;;;;;;2.30;2.10;;;17.80;78.10;;;17.83;40.94;100375.38;4870399;28;99957;-52
2021/05/09 01:09:42;;;;;;;2.60;2.10;;;17.80;79.50;;;17.81;41.26;100376.44;4894126;28;99959;-55
2021/05/09 01:12:12;;;;;;;2.03;1.80;;;17.80;82.40;;;17.78;41.74;100377.50;4886567;28;100095;-49
2021/05/09 01:14:39;;;;;;;1.63;1.53;;;17.70;83.50;;;17.77;40.97;100374.94;4887400;28;98557;-49
2021/05/09 01:17:11;;;;;;;1.70;1.60;;;17.70;80.20;;;17.76;40.99;100373.22;4893257;28;99614;-55
2021/05/09 01:19:38;;;;;;;2.17;1.97;;;17.70;80.20;;;17.78;40.52;100365.97;4875041;28;98687;-50
2021/05/09 01:22:09;;;;;;;1.90;1.80;;;17.70;79.10;;;17.82;40.44;100359.47;4878120;28;99618;-49
2021/05/09 01:24:36;;;;;;;1.80;1.70;;;17.80;78.80;;;17.85;40.31;100359.25;4871606;28;98921;-52
2021/05/09 01:27:03;;;;;;;2.40;2.20;;;17.80;78.00;;;17.85;40.83;100361.94;4874291;28;98653;-51
2021/05/09 01:29:31;;;;;;;2.13;1.93;;;17.80;81.90;;;17.85;40.61;100351.25;4876964;28;100848;-51
2021/05/09 01:31:58;;;;;;;1.67;1.57;;;17.80;78.20;;;17.88;40.46;100353.69;4874538;28;97496;-52
2021/05/09 01:34:25;;;;;;;2.10;1.90;;;17.90;77.60;;;17.91;40.54;100350.81;4876525;28;97716;-55
2021/05/09 01:36:51;;;;;;;2.43;2.23;;;17.90;78.60;;;17.91;40.40;100334.81;4874224;28;98516;-53
2021/05/09 01:39:16;;;;;;;2.13;1.93;;;17.90;77.50;;;17.93;40.00;100343.53;4873220;28;99594;-58
2021/05/09 01:41:42;;;;;;;2.13;1.90;;;17.90;77.40;;;17.91;40.60;100334.81;4873102;28;98997;-58
2021/05/09 01:44:08;;;;;;;1.97;1.83;;;17.90;78.30;;;17.93;40.25;100332.03;4873155;28;99051;-54
2021/05/09 01:46:34;;;;;;;2.37;2.17;;;17.90;77.20;;;17.90;40.65;100335.75;4876707;28;98593;-49
2021/05/09 01:49:00;;;;;;;1.87;1.77;;;17.90;79.10;;;17.92;40.31;100331.16;4869055;28;103904;-50
2021/05/09 01:51:26;;;;;;;1.70;1.60;;;17.90;77.50;;;17.93;40.16;100337.34;4892251;28;99474;-47
2021/05/09 01:53:52;;;;;;;2.07;1.90;;;17.90;77.50;;;17.95;40.37;100322.97;4884766;28;98016;-47
2021/05/09 01:56:18;;;;;;;2.00;1.83;;;18.00;77.00;;;17.95;40.36;100322.97;4875026;28;99019;-47
2021/05/09 01:58:45;;;;;;;2.20;1.90;;;18.00;79.30;;;17.94;40.92;100318.59;4871662;28;97740;-44
2021/05/09 02:01:11;;;;;;;2.00;1.90;;;18.00;79.90;;;17.92;40.31;100320.50;4874040;28;99227;-48
2021/05/09 02:03:37;;;;;;;2.00;1.90;;;17.90;77.60;;;17.91;40.13;100313.44;4871296;28;96801;-46
2021/05/09 02:06:03;;;;;;;1.80;1.70;;;17.90;77.20;;;17.91;40.52;100313.44;4876875;28;110320;-47
2021/05/09 02:08:29;;;;;;;2.00;1.90;;;17.90;77.70;;;17.91;40.89;100305.44;4878151;28;100506;-45
2021/05/09 02:10:55;;;;;;;2.60;2.27;;;17.90;80.00;;;17.88;40.70;100303.00;4869475;28;103756;-47
2021/05/09 02:13:21;;;;;;;2.00;1.90;;;17.90;79.50;;;17.87;40.72;100306.63;4879251;28;98718;-45
2021/05/09 02:15:47;;;;;;;1.83;1.73;;;17.80;78.00;;;17.88;40.28;100303.00;4869947;28;97763;-54
2021/05/09 02:18:13;;;;;;;1.90;1.80;;;17.90;77.90;;;17.91;40.25;100302.78;4870685;28;107822;-55
2021/05/09 02:20:38;;;;;;;2.00;1.90;;;17.90;77.20;;;17.93;40.40;100295.50;4883266;28;97455;-47
2021/05/09 02:23:04;;;;;;;2.10;2.00;;;17.90;77.00;;;17.95;40.18;100293.63;4879393;28;98306;-57
2021/05/09 02:25:30;;;;;;;1.93;1.83;;;18.00;76.80;;;17.97;40.29;100297.03;4873479;28;101168;-52
2021/05/09 02:27:56;;;;;;;2.03;1.90;;;18.00;76.80;;;17.99;40.05;100295.09;4884078;28;97711;-56
2021/05/09 02:30:22;;;;;;;2.40;2.20;;;18.10;76.60;;;18.02;40.40;100288.69;4872035;28;102148;-54
2021/05/09 02:32:48;;;;;;;2.00;1.90;;;18.10;76.50;;;18.06;40.09;100291.00;4872548;28;98871;-55
2021/05/09 02:35:14;;;;;;;2.00;1.90;;;18.10;76.30;;;18.09;39.86;100284.63;4873170;28;103668;-49
2021/05/09 02:37:40;;;;;;;2.07;1.97;;;18.20;76.20;;;18.10;39.81;100287.16;4873594;28;97537;-55
2021/05/09 02:40:07;;;;;;;2.10;2.00;;;18.20;76.20;;;18.10;39.76;100280.97;4868159;28;99446;-49
2021/05/09 02:42:33;;;;;;;1.90;1.80;;;18.20;76.20;;;18.12;40.24;100279.91;4874791;28;98756;-52
2021/05/09 02:44:59;;;;;;;2.17;2.07;;;18.20;77.10;;;18.09;39.94;100285.47;4866803;28;98738;-49
2021/05/09 02:47:28;;;;;;;2.17;1.97;;;18.20;76.50;;;18.06;40.04;100275.00;4868079;28;99629;-52
2021/05/09 02:49:59;;;;;;;2.40;2.20;;;18.10;77.60;;;18.06;39.93;100275.00;4882484;28;99025;-46
2021/05/09 02:52:26;;;;;;;2.10;2.00;;;18.10;76.80;;;18.02;40.36;100273.50;4886793;28;96801;-47
2021/05/09 02:54:53;;;;;;;2.33;2.13;;;18.10;76.90;;;18.03;40.47;100275.22;4888588;28;97113;-44
2021/05/09 02:57:20;;;;;;;2.83;2.33;;;18.10;77.80;;;18.05;40.10;100278.63;4871369;28;103362;-46
2021/05/09 02:59:46;;;;;;;2.37;2.17;;;18.10;76.60;;;18.07;40.10;100276.69;4866056;28;100136;-46
2021/05/09 03:02:12;;;;;;;2.10;2.00;;;18.10;76.80;;;18.09;40.24;100272.13;4885760;28;97409;-45
2021/05/09 03:04:38;;;;;;;2.30;2.10;;;18.10;76.70;;;18.09;41.48;100272.13;4887457;28;98035;-45
2021/05/09 03:07:04;;;;;;;3.30;2.17;;;18.20;79.00;;;18.07;40.78;100266.00;4868769;28;99928;-52
2021/05/09 03:09:30;;;;;;;2.30;2.10;;;18.10;79.00;;;18.06;40.27;100258.97;4889601;28;99542;-49
2021/05/09 03:11:57;;;;;;;1.80;1.70;;;18.10;78.50;;;18.06;40.25;100271.47;4869014;28;98293;-48
2021/05/09 03:14:23;;;;;;;2.00;1.90;;;18.10;77.00;;;18.06;40.20;100264.31;4891423;28;97255;-54
2021/05/09 03:16:48;;;;;;;2.00;1.90;;;18.10;76.80;;;18.07;39.96;100271.34;4867599;28;99724;-46
2021/05/09 03:19:14;;;;;;;2.30;2.10;;;18.10;77.30;;;18.02;40.89;100264.66;4874191;28;99380;-48
2021/05/09 03:21:41;;;;;;;2.00;1.90;;;18.00;82.70;;;17.95;41.72;100272.28;4865034;28;98244;-44
2021/05/09 03:24:11;;;;;;;2.30;2.10;;;17.90;80.60;;;17.92;40.85;100267.13;4893850;28;98534;-52
2021/05/09 03:26:37;;;;;;;2.17;1.93;;;17.80;78.50;;;17.92;40.66;100266.28;4868673;28;100559;-47
2021/05/09 03:29:05;;;;;;;2.40;2.20;;;17.80;78.00;;;17.94;40.40;100265.22;4871626;28;97360;-47
2021/05/09 03:31:32;;;;;;;2.33;2.13;;;17.90;77.50;;;17.98;40.27;100261.38;4874945;28;104455;-49
2021/05/09 03:33:58;;;;;;;2.20;2.00;;;18.00;77.20;;;17.93;43.98;100258.16;4880902;28;97197;-48
2021/05/09 03:36:24;;;;;;;3.73;1.90;;;18.00;83.10;;;17.83;44.07;100251.81;4894903;28;98544;-50
2021/05/09 03:38:50;;;;;;;2.40;2.20;;;17.80;85.30;;;17.79;40.94;100242.28;4853228;28;98373;-51
2021/05/09 03:41:16;;;;;;;2.07;1.97;;;17.70;79.70;;;17.81;40.70;100251.06;4897494;28;99840;-51
2021/05/09 03:43:44;;;;;;;2.17;2.07;;;17.70;78.30;;;17.87;40.85;100253.28;4873632;28;98403;-51
2021/05/09 03:46:10;;;;;;;2.50;2.30;;;17.80;78.00;;;17.87;40.56;100247.94;4874435;28;99388;-48
2021/05/09 03:48:36;;;;;;;2.53;2.33;;;17.90;78.00;;;17.90;41.03;100247.72;4888385;28;99821;-52
2021/05/09 03:51:02;;;;;;;2.50;2.30;;;17.90;78.50;;;17.92;40.61;100235.13;4874839;28;100792;-50
2021/05/09 03:53:30;;;;;;;2.10;1.90;;;18.00;77.40;;;17.93;40.77;100234.16;4858929;28;99674;-48
2021/05/09 03:55:59;;;;;;;2.70;2.10;;;18.00;77.60;;;18.00;40.49;100237.25;4869683;28;99215;-54
2021/05/09 03:58:25;;;;;;;2.40;2.20;;;18.10;77.50;;;18.00;40.73;100238.09;4887193;28;99591;-50
2021/05/09 04:00:51;;;;;;;2.30;2.10;;;18.10;77.40;;;18.02;40.80;100233.50;4886521;28;98540;-53
2021/05/09 04:03:29;;;;;;;2.63;2.43;;;18.10;77.20;;;18.05;40.47;100235.06;4893809;28;97537;-49
2021/05/09 04:05:55;;;;;;;2.20;2.10;;;18.20;77.10;;;18.06;40.59;100234.09;4872979;28;98314;-53
2021/05/09 04:08:24;;;;;;;2.53;2.33;;;18.20;77.00;;;18.08;40.62;100229.50;4896445;28;98172;-49
2021/05/09 04:10:52;;;;;;;2.60;2.40;;;18.20;76.90;;;18.08;41.38;100233.06;4870685;28;99136;-44
2021/05/09 04:13:19;;;;;;;3.10;2.90;;;18.20;77.90;;;18.09;40.64;100248.09;4864452;28;99385;-44
2021/05/09 04:15:45;;;;;;;2.60;2.40;;;18.20;76.80;;;18.08;40.50;100241.06;4862233;28;98379;-45
2021/05/09 04:18:11;;;;;;;2.50;2.30;;;18.20;77.00;;;18.05;40.80;100243.94;4888782;28;98106;-50
2021/05/09 04:20:37;;;;;;;2.40;2.30;;;18.10;79.40;;;18.05;40.55;100243.94;4866148;28;98114;-51
2021/05/09 04:23:21;;;;;;;2.50;2.30;;;18.10;77.50;;;18.10;40.26;100238.28;4894951;28;97900;-54
2021/05/09 04:25:50;;;;;;;2.23;2.13;;;18.20;77.00;;;18.08;40.62;100241.06;4869050;28;100105;-57
2021/05/09 04:28:17;;;;;;;2.30;2.10;;;18.20;76.90;;;18.10;40.46;100227.59;4878279;28;97049;-56
2021/05/09 04:30:43;;;;;;;2.40;2.20;;;18.20;76.80;;;18.11;40.48;100224.81;4865180;28;97389;-46
2021/05/09 04:33:09;;;;;;;2.60;2.40;;;18.20;76.70;;;18.13;40.01;100228.22;4875521;28;98488;-47
2021/05/09 04:35:39;;;;;;;2.57;2.37;;;18.20;76.40;;;18.13;40.12;100225.56;4887712;28;99204;-52
2021/05/09 04:38:05;;;;;;;2.20;2.00;;;18.20;76.30;;;18.13;40.26;100217.53;4883430;28;104265;-45
2021/05/09 04:40:31;;;;;;;2.10;2.00;;;18.30;76.50;;;18.13;40.10;100217.53;4890446;28;97476;-43
2021/05/09 04:43:12;;;;;;;3.13;2.10;;;18.30;76.30;;;18.20;40.34;100230.41;4893351;28;97423;-47
2021/05/09 04:45:39;;;;;;;2.07;1.97;;;18.30;76.80;;;18.16;40.19;100221.81;4904693;28;99217;-44
2021/05/09 04:48:06;;;;;;;2.53;2.40;;;18.30;76.70;;;18.17;40.11;100217.31;4914204;28;102541;-48
2021/05/09 04:50:32;;;;;;;2.30;2.20;;;18.30;76.40;;;18.20;41.61;100223.25;4892744;28;98983;-48
2021/05/09 04:52:59;;;;;;;2.60;2.40;;;18.30;77.50;;;18.22;40.17;100225.81;4894107;28;97425;-44
2021/05/09 04:55:25;;;;;;;2.43;2.30;;;18.30;76.80;;;18.21;40.22;100214.28;4892680;28;99927;-45
2021/05/09 04:57:51;;;;;;;2.27;2.07;;;18.30;76.40;;;18.23;40.30;100223.06;4893059;28;97266;-49
2021/05/09 05:00:18;;;;;;;2.13;1.97;;;18.30;76.30;;;18.21;40.21;100224.13;4895956;28;97185;-44
2021/05/09 05:02:45;;;;;;;2.70;2.50;;;18.30;76.40;;;18.22;40.22;100221.34;4891346;28;97622;-44
2021/05/09 05:05:13;;;;;;;2.73;2.53;;;18.40;76.30;;;18.23;40.44;100216.88;4894947;28;99459;-44
2021/05/09 05:07:39;;;;;;;2.60;2.40;;;18.40;76.30;;;18.26;40.19;100221.97;4904074;28;97106;-43
2021/05/09 05:10:06;;;;;;;2.63;2.40;;;18.40;76.70;;;18.29;40.24;100227.09;4893732;28;97744;-45
2021/05/09 05:12:32;;;;;;;2.77;2.57;;;18.40;76.30;;;18.31;41.62;100231.34;4894337;28;97110;-44
2021/05/09 05:14:58;;;;;;;3.17;1.90;;;18.50;78.60;;;18.29;41.01;100221.75;4907869;28;97490;-43
2021/05/09 05:17:24;;;;;;;2.40;2.20;;;18.40;79.00;;;18.29;40.21;100227.94;4908953;28;98103;-46
2021/05/09 05:19:50;;;;;;;2.30;2.13;;;18.40;76.50;;;18.30;40.46;100232.31;4890187;28;97198;-45
2021/05/09 05:22:15;;;;;;;2.60;2.40;;;18.40;76.30;;;18.32;40.50;100232.19;4904053;28;97454;-48
2021/05/09 05:24:41;;;;;;;2.57;2.37;;;18.50;76.50;;;18.31;40.46;100231.34;4888070;28;98988;-45
2021/05/09 05:27:07;;;;;;;2.63;2.43;;;18.40;76.40;;;18.32;40.36;100225.03;4910056;28;96893;-44
2021/05/09 05:29:33;;;;;;;2.43;2.30;;;18.50;76.30;;;18.31;40.16;100230.50;4893874;28;97888;-46
2021/05/09 05:31:59;;;;;;;2.50;2.30;;;18.40;76.40;;;18.31;42.44;100219.81;4887771;28;100527;-44
2021/05/09 05:34:25;;;;;;;2.40;2.20;;;18.50;78.60;;;18.30;40.48;100218.09;4909800;28;98271;-47
2021/05/09 05:36:51;;;;;;;2.90;2.70;;;18.40;77.50;;;18.28;40.28;100223.56;4896900;28;110976;-47
2021/05/09 05:39:18;;;;;;;2.40;2.20;;;18.40;76.40;;;18.26;40.50;100217.50;4888866;28;97247;-46
2021/05/09 05:41:43;;;;;;;2.87;2.60;;;18.40;76.40;;;18.26;40.38;100213.97;4893265;28;96910;-46
2021/05/09 05:44:09;;;;;;;2.27;2.13;;;18.40;76.50;;;18.26;40.54;100203.28;4912934;28;98935;-50
2021/05/09 05:46:35;;;;;;;2.60;2.40;;;18.40;76.70;;;18.25;40.71;100209.59;4902237;28;98563;-51
2021/05/09 05:49:01;;;;;;;2.93;2.67;;;18.40;76.80;;;18.24;40.61;100202.56;4907342;28;102354;-50
2021/05/09 05:51:27;;;;;;;3.70;2.70;;;18.40;76.90;;;18.23;40.68;100201.72;4895985;28;97406;-48
2021/05/09 05:53:59;;;;;;;2.47;2.27;;;18.40;77.10;;;18.21;41.05;100194.75;4887648;28;106054;-45
2021/05/09 05:56:25;;;;;;;4.00;2.67;;;18.30;77.30;;;18.13;41.15;100201.53;4909809;28;99146;-47
2021/05/09 05:58:52;;;;;;;2.30;2.20;;;18.30;77.10;;;18.19;41.20;100204.69;4886258;28;98655;-46
2021/05/09 06:01:19;;;;;;;2.93;2.60;;;18.30;77.30;;;18.19;40.93;100199.34;4895160;28;97737;-45
2021/05/09 06:03:45;;;;;;;2.50;2.30;;;18.30;77.10;;;18.20;41.06;100196.56;4890958;28;98394;-46
2021/05/09 06:06:11;;;;;;;2.50;2.20;;;18.40;77.70;;;18.23;41.18;100195.53;4896558;28;98317;-47
2021/05/09 06:08:38;;;;;;;2.23;2.13;;;18.40;78.40;;;18.20;40.92;100193.91;4904209;28;97013;-47
2021/05/09 06:11:04;;;;;;;2.03;1.93;;;18.30;77.50;;;18.21;40.82;100197.44;4895575;28;97040;-45
2021/05/09 06:13:30;;;;;;;2.33;2.13;;;18.40;77.40;;;18.17;41.43;100195.97;4893291;28;100685;-48
2021/05/09 06:15:56;;;;;;;2.30;2.10;;;18.30;78.10;;;18.13;41.35;100198.00;4909661;28;101613;-50
2021/05/09 06:18:22;;;;;;;2.00;1.90;;;18.30;77.60;;;18.16;41.46;100196.94;4892593;28;96816;-47
2021/05/09 06:20:48;;;;;;;2.60;2.40;;;18.30;78.20;;;18.12;41.44;100194.50;4887091;28;97067;-49
2021/05/09 06:23:20;;;;;;;2.17;2.03;;;18.30;77.80;;;18.17;41.36;100201.28;4883264;28;100158;-45
2021/05/09 06:25:46;;;;;;;1.90;1.80;;;18.30;77.40;;;18.19;41.40;100194.03;4888021;28;97450;-48
2021/05/09 06:28:12;;;;;;;2.17;1.97;;;18.30;78.40;;;18.10;41.32;100190.25;4900366;28;97236;-47
2021/05/09 06:30:38;;;;;;;2.00;1.90;;;18.30;77.90;;;18.15;41.09;100193.41;4887283;28;100297;-47
2021/05/09 06:33:04;;;;;;;2.87;2.13;;;18.30;77.70;;;18.18;41.53;100192.31;4895115;28;97671;-46
2021/05/09 06:35:31;;;;;;;2.40;2.10;;;18.30;79.10;;;18.16;41.17;100172.91;4889745;28;100151;-44
2021/05/09 06:37:57;;;;;;;2.10;1.90;;;18.30;77.50;;;18.13;41.57;100177.50;4891927;28;97121;-49
2021/05/09 06:40:23;;;;;;;2.63;2.10;;;18.30;78.20;;;18.13;41.41;100174.00;4887674;28;97148;-47
2021/05/09 06:42:59;;;;;;;1.93;1.83;;;18.40;78.10;;;18.16;41.56;100171.09;4889175;28;98183;-47
2021/05/09 06:45:27;;;;;;;2.10;2.00;;;18.30;78.30;;;18.14;41.44;100176.53;4888790;28;98156;-49
2021/05/09 06:47:55;;;;;;;2.33;1.73;;;18.30;78.10;;;18.13;41.82;100171.31;4906815;28;97499;-50
2021/05/09 06:50:21;;;;;;;1.90;1.73;;;18.30;79.10;;;18.17;41.54;100163.94;4904404;28;97452;-49
2021/05/09 06:52:47;;;;;;;1.73;1.63;;;18.30;78.20;;;18.17;41.50;100166.59;4904706;28;98695;-44
2021/05/09 06:55:13;;;;;;;2.13;1.97;;;18.40;77.80;;;18.17;41.75;100162.09;4891513;28;97710;-47
2021/05/09 06:57:40;;;;;;;2.10;1.93;;;18.40;79.30;;;18.13;41.72;100158.81;4907065;28;97168;-48
2021/05/09 07:00:10;;;;;;;2.03;1.93;;;18.30;78.30;;;18.19;41.61;100162.84;4894280;28;97403;-50
2021/05/09 07:02:36;;;;;;;1.70;1.57;;;18.40;78.70;;;18.13;42.13;100153.50;4888721;28;98685;-53
2021/05/09 07:05:03;;;;;;;1.90;1.80;;;18.40;79.30;;;18.10;42.22;100152.88;4899023;28;102691;-44
2021/05/09 07:07:29;;;;;;;2.00;1.80;;;18.30;78.80;;;18.10;42.06;100148.38;4900612;28;97803;-46
2021/05/09 07:09:55;;;;;;;2.40;1.60;;;18.30;78.80;;;18.16;42.16;100156.88;4888861;28;96995;-51
2021/05/09 07:12:21;;;;;;;1.80;1.70;;;18.30;78.90;;;18.17;42.00;100151.44;4911312;28;97804;-46
2021/05/09 07:14:48;;;;;;;1.80;1.70;;;18.30;78.80;;;18.11;42.14;100155.44;4891931;28;99453;-46
2021/05/09 07:17:16;;;;;;;1.80;1.70;;;18.30;78.60;;;18.00;42.30;100152.69;4897534;28;97402;-47
2021/05/09 07:19:44;;;;;;;1.80;1.70;;;18.20;78.70;;;18.01;42.48;100142.88;4889291;28;97430;-46
2021/05/09 07:22:16;;;;;;;2.20;2.00;;;18.20;79.30;;;18.06;42.25;100146.88;4913860;28;97277;-49
2021/05/09 07:24:44;;;;;;;2.47;1.60;;;18.30;79.20;;;18.08;42.13;100142.31;4894339;28;98316;-46
2021/05/09 07:27:10;;;;;;;2.43;1.67;;;18.30;79.20;;;18.19;48.15;100151.31;4892880;28;97526;-46
2021/05/09 07:29:36;;;;;;;2.13;1.53;;;18.40;86.30;;;18.13;42.35;100142.81;4893876;28;97274;-51
2021/05/09 07:32:02;;;;;;;2.43;1.60;;;18.30;79.70;;;18.22;42.92;100132.41;4893731;28;100579;-44
2021/05/09 07:34:27;;;;;;;1.93;1.80;;;18.40;81.30;;;18.29;42.13;100136.31;4914501;28;97561;-47
2021/05/09 07:36:53;;;;;;;1.63;1.50;;;18.50;79.00;;;18.23;43.25;100121.63;4891957;28;97940;-47
2021/05/09 07:39:19;;;;;;;2.10;1.90;;;18.40;81.10;;;18.27;42.21;100124.91;4896108;28;99701;-49
2021/05/09 07:41:45;;;;;;;2.10;1.90;;;18.50;79.60;;;18.32;46.52;100136.06;4910380;28;97264;-46
2021/05/09 07:44:11;;;;;;;2.40;2.00;;;18.50;84.60;;;18.35;45.35;100131.34;4897064;28;97423;-48
2021/05/09 07:46:37;;;;;;;1.60;1.50;;;18.50;82.70;;;18.35;45.73;100128.69;4890041;28;97244;-53
2021/05/09 07:49:03;;;;;;;1.50;1.40;;;18.60;81.80;;;18.19;42.12;100124.63;4895089;28;96888;-48
2021/05/09 07:51:29;;;;;;;1.87;1.77;;;18.40;78.60;;;18.24;42.33;100114.47;4899596;28;97187;-45
2021/05/09 07:53:55;;;;;;;1.87;1.50;;;18.50;79.90;;;18.21;42.16;100112.00;4889515;28;113895;-45
2021/05/09 07:56:20;;;;;;;2.13;1.80;;;18.40;79.20;;;18.28;42.03;100107.91;4912916;28;103415;-46
2021/05/09 07:58:47;;;;;;;2.10;2.00;;;18.50;79.10;;;18.23;42.35;100107.44;4889205;28;97467;-45
2021/05/09 08:01:12;;;;;;;2.87;1.70;;;18.50;79.20;;;18.28;48.95;100102.59;4914010;28;97480;-44
2021/05/09 08:03:38;;;;;;;2.13;1.93;;;18.50;86.90;;;18.22;42.83;100098.53;4906521;28;96979;-45
2021/05/09 08:06:04;;;;;;;1.60;1.50;;;18.40;79.70;;;18.21;42.37;100088.00;4916049;28;97105;-49
2021/05/09 08:08:31;;;;;;;3.57;1.87;;;18.40;79.50;;;18.19;42.36;100081.91;4896330;28;97603;-46
2021/05/09 08:10:58;;;;;;;4.70;2.03;;;18.40;79.10;;;18.18;42.97;100080.22;4896339;28;97423;-44
2021/05/09 08:13:23;;;;;;;1.40;1.30;;;18.40;80.70;;;18.20;42.48;100083.63;4893728;28;97228;-47
2021/05/09 08:15:50;;;;;;;1.77;1.67;;;18.40;79.30;;;18.25;42.38;100070.78;4879717;28;97084;-48
2021/05/09 08:18:24;;;;;;;1.97;1.80;;;18.50;80.10;;;18.23;42.53;100059.38;4912885;28;98664;-46
2021/05/09 08:20:53;;;;;;;2.87;1.90;;;18.50;79.40;;;18.25;42.41;100057.44;4891765;28;100051;-44
2021/05/09 08:23:20;;;;;;;1.60;1.50;;;18.50;79.50;;;18.27;42.47;100058.19;4914946;28;97754;-48
2021/05/09 08:25:46;;;;;;;1.60;1.43;;;18.50;79.50;;;18.20;42.54;100054.25;4896485;28;98842;-45
2021/05/09 08:28:12;;;;;;;1.67;1.57;;;18.40;79.70;;;18.17;42.92;100041.16;4898448;28;98670;-45
2021/05/09 08:30:38;;;;;;;1.60;1.50;;;18.40;80.10;;;18.19;42.70;100039.22;4891522;28;100083;-45
2021/05/09 08:33:04;;;;;;;2.10;1.90;;;18.40;80.20;;;18.21;42.70;100032.78;4898101;28;96890;-44
2021/05/09 08:35:30;;;;;;;1.63;1.50;;;18.40;79.70;;;18.26;42.57;100025.28;4895407;28;97022;-46
2021/05/09 08:37:56;;;;;;;4.30;1.80;;;18.50;79.70;;;18.31;42.48;100022.25;4892621;28;99285;-44
2021/05/09 08:40:22;;;;;;;1.93;1.77;;;18.50;80.90;;;18.26;42.91;100019.09;4913964;28;104494;-44
2021/05/09 08:42:50;;;;;;;2.67;1.87;;;18.50;80.00;;;18.18;42.72;100010.81;4914509;28;97554;-46
2021/05/09 08:45:18;;;;;;;2.23;2.03;;;18.40;80.10;;;18.15;43.55;99998.56;4912559;28;97403;-47
2021/05/09 08:47:44;;;;;;;2.37;2.17;;;18.40;81.30;;;18.04;44.70;100002.06;4904326;28;96874;-45
2021/05/09 08:50:19;;;;;;;2.10;1.90;;;18.30;82.80;;;18.08;44.30;99989.31;4894345;28;100139;-45
2021/05/09 08:52:48;;;;;;;5.70;2.20;;;18.30;82.30;;;18.09;44.17;99986.56;4890552;28;99415;-43
2021/05/09 08:55:17;;;;;;;2.33;1.93;;;18.30;82.30;;;18.08;44.16;99987.53;4892845;28;97654;-44
2021/05/09 08:57:44;;;;;;;2.73;2.10;;;18.30;82.10;;;18.09;44.22;99983.06;4906459;28;97215;-44
2021/05/09 09:00:13;;;;;;;2.30;2.10;;;18.30;83.10;;;18.07;44.36;99985.81;4895669;28;98050;-44
2021/05/09 09:02:41;;;;;;;2.60;2.30;;;18.30;82.70;;;18.07;44.74;99979.63;4895501;28;97473;-45
2021/05/09 09:05:10;;;;;;;2.00;1.80;;;18.30;83.10;;;18.04;45.21;99986.06;4895092;28;97264;-49
2021/05/09 09:08:03;;;;;;;4.23;2.20;;;18.20;84.00;;;18.06;45.17;99976.09;4912444;28;99355;-53
2021/05/09 09:10:45;;;;;;;3.10;2.27;;;18.30;84.20;;;18.08;44.73;99974.19;4905744;28;97506;-48
2021/05/09 09:13:33;;;;;;;3.77;2.20;;;18.30;84.10;;;18.16;44.87;99967.41;4892149;28;103282;-50
2021/05/09 09:16:06;;;;;;;2.83;2.07;;;18.30;83.50;;;17.99;46.12;99968.72;4904967;28;96845;-44
2021/05/09 09:18:43;;;;;;;2.17;1.97;;;18.20;85.10;;;18.00;45.50;99960.59;4898094;28;97413;-45
2021/05/09 09:21:31;;;;;;;2.73;2.03;;;18.20;85.00;;;18.06;45.35;99965.44;4905901;28;102835;-44
2021/05/09 09:24:06;;;;;;;3.70;2.17;;;18.30;85.30;;;18.02;44.39;99952.44;4891792;28;99048;-45
2021/05/09 09:26:46;;;;;;;2.00;1.80;;;18.20;83.80;;;17.95;45.62;99957.44;4893698;28;98092;-44
2021/05/09 09:29:34;;;;;;;2.67;1.90;;;18.20;85.30;;;18.06;45.18;99944.09;4909392;28;97199;-47
2021/05/09 09:32:05;;;;;;;3.13;2.20;;;18.30;85.00;;;18.03;45.59;99944.31;4904307;28;97487;-47
2021/05/09 09:34:42;;;;;;;5.20;2.20;;;18.20;84.40;;;18.05;46.07;99921.03;4897591;28;97943;-43
2021/05/09 09:37:10;;;;;;;2.43;2.00;;;18.30;86.20;;;18.26;45.71;99933.69;4891033;28;100029;-46
2021/05/09 09:39:54;;;;;;;2.33;2.10;;;18.50;85.30;;;18.51;45.26;99925.41;4896332;28;97730;-48
2021/05/09 09:42:39;;;;;;;2.50;1.73;;;18.70;87.70;;;18.48;44.33;99919.47;4908063;28;105613;-45
2021/05/09 09:45:20;;;;;;;3.20;2.43;;;18.70;83.30;;;18.35;44.11;99911.56;4906078;28;100989;-45
2021/05/09 09:47:56;;;;;;;2.27;2.03;;;18.60;83.50;;;18.35;44.08;99906.25;4904060;28;99595;-44
2021/05/09 09:50:37;;;;;;;2.30;2.10;;;18.60;83.10;;;18.30;44.47;99908.44;4896562;28;97308;-47
2021/05/09 09:53:35;;;;;;;4.20;2.23;;;18.50;83.70;;;18.50;44.32;99907.69;4905365;28;101640;-44
2021/05/09 09:56:14;;;;;;;4.13;2.00;;;18.80;85.50;;;18.44;44.36;99905.53;4910558;28;101440;-44
2021/05/09 09:58:49;;;;;;;2.33;2.00;;;18.70;84.60;;;18.33;44.81;99897.50;4886744;28;99320;-45
2021/05/09 10:01:33;;;;;;;2.47;1.77;;;18.60;84.10;;;18.45;45.56;99896.53;4895440;28;97227;-44
2021/05/09 10:04:05;;;;;;;2.60;2.10;;;18.60;90.20;;;18.68;44.52;99903.59;4887597;28;97258;-43
2021/05/09 10:06:31;;;;;;;2.40;2.10;;;18.90;85.80;;;18.64;44.31;99896.78;4896399;28;97224;-46
2021/05/09 10:08:58;;;;;;;1.80;1.70;;;19.00;83.40;;;18.53;44.09;99895.94;4906628;28;98596;-46
2021/05/09 10:11:29;;;;;;;2.17;1.97;;;18.80;83.10;;;18.34;44.91;99885.84;4896271;28;97354;-44
2021/05/09 10:13:56;;;;;;;4.13;2.03;;;18.60;83.80;;;18.34;47.72;99893.88;4906125;28;97564;-49
2021/05/09 10:16:29;;;;;;;3.83;2.00;;;18.50;86.00;;;18.66;52.43;99884.16;4897032;28;99982;-46